createdAt,value
2017-12-31T00:00:04.880Z,11.50
2017-12-31T00:02:31.551Z,11.50
2017-12-31T00:04:58.233Z,11.50
2017-12-31T00:07:24.916Z,11.50
2017-12-31T00:09:52.408Z,11.50
2017-12-31T00:12:19.499Z,11.50
2017-12-31T00:14:46.261Z,11.50
2017-12-31T00:17:16.822Z,11.50
2017-12-31T00:19:43.927Z,11.50
2017-12-31T00:22:11.022Z,11.50
2017-12-31T00:24:38.123Z,11.40
2017-12-31T00:27:05.027Z,11.40
2017-12-31T00:29:32.186Z,11.40
2017-12-31T00:31:58.845Z,11.40
2017-12-31T00:34:25.595Z,11.40
2017-12-31T00:36:52.311Z,11.40
2017-12-31T00:39:19.470Z,11.40
2017-12-31T00:41:46.195Z,11.40
2017-12-31T00:44:13.242Z,11.40
2017-12-31T00:46:39.942Z,11.40
2017-12-31T00:49:06.662Z,11.40
2017-12-31T00:51:33.797Z,11.40
2017-12-31T00:54:00.436Z,11.40
2017-12-31T00:56:28.609Z,11.40
2017-12-31T00:59:04.193Z,11.40
2017-12-31T01:01:31.299Z,11.40
2017-12-31T01:03:57.957Z,11.40
2017-12-31T01:06:24.637Z,11.40
2017-12-31T01:08:51.697Z,11.40
2017-12-31T01:11:18.331Z,11.30
2017-12-31T01:13:45.374Z,11.30
2017-12-31T01:16:12.033Z,11.30
2017-12-31T01:18:39.097Z,11.40
2017-12-31T01:21:06.174Z,11.40
2017-12-31T01:23:32.837Z,11.40
2017-12-31T01:25:59.476Z,11.40
2017-12-31T01:28:28.554Z,11.40
2017-12-31T01:30:55.207Z,11.30
2017-12-31T01:33:22.254Z,11.30
2017-12-31T01:35:48.906Z,11.30
2017-12-31T01:38:15.552Z,11.30
2017-12-31T01:40:42.609Z,11.30
2017-12-31T01:43:09.276Z,11.30
2017-12-31T01:45:36.354Z,11.30
2017-12-31T01:48:03.019Z,11.30
2017-12-31T01:50:30.086Z,11.30
2017-12-31T01:52:57.511Z,11.30
2017-12-31T01:55:24.580Z,11.30
2017-12-31T01:57:51.641Z,11.30
2017-12-31T02:00:18.305Z,11.30
2017-12-31T02:02:44.984Z,11.30
2017-12-31T02:05:12.047Z,11.30
2017-12-31T02:07:38.710Z,11.30
2017-12-31T02:10:05.365Z,11.20
2017-12-31T02:12:32.888Z,11.20
2017-12-31T02:15:04.565Z,11.30
2017-12-31T02:17:31.681Z,11.30
2017-12-31T02:19:58.384Z,11.30
2017-12-31T02:22:25.073Z,11.20
2017-12-31T02:24:51.710Z,11.20
2017-12-31T02:27:18.351Z,11.20
2017-12-31T02:29:45.409Z,11.20
2017-12-31T02:32:12.122Z,11.20
2017-12-31T02:34:38.785Z,11.20
2017-12-31T02:37:05.834Z,11.30
2017-12-31T02:39:32.554Z,11.30
2017-12-31T02:41:59.218Z,11.20
2017-12-31T02:44:26.330Z,11.20
2017-12-31T02:46:52.974Z,11.20
2017-12-31T02:49:19.649Z,11.20
2017-12-31T02:51:46.715Z,11.20
2017-12-31T02:54:13.402Z,11.20
2017-12-31T02:56:40.050Z,11.20
2017-12-31T02:59:07.485Z,11.20
2017-12-31T03:01:34.605Z,11.20
2017-12-31T03:04:01.672Z,11.20
2017-12-31T03:06:28.761Z,11.20
2017-12-31T03:08:55.421Z,11.20
2017-12-31T03:11:22.097Z,11.20
2017-12-31T03:13:49.566Z,11.20
2017-12-31T03:16:16.254Z,11.20
2017-12-31T03:18:42.897Z,11.20
2017-12-31T03:21:10.970Z,11.20
2017-12-31T03:23:38.052Z,11.20
2017-12-31T03:26:04.734Z,11.20
2017-12-31T03:28:31.417Z,11.20
2017-12-31T03:30:58.086Z,11.20
2017-12-31T03:33:24.787Z,11.20
2017-12-31T03:35:51.866Z,11.20
2017-12-31T03:38:19.308Z,11.10
2017-12-31T03:40:45.953Z,11.10
2017-12-31T03:43:12.612Z,11.20
2017-12-31T03:45:39.293Z,11.20
2017-12-31T03:48:06.756Z,11.20
2017-12-31T03:50:33.781Z,11.20
2017-12-31T03:53:00.842Z,11.10
2017-12-31T03:55:27.908Z,11.10
2017-12-31T03:57:54.949Z,11.20
2017-12-31T04:00:21.626Z,11.10
2017-12-31T04:02:48.263Z,11.10
2017-12-31T04:05:15.342Z,11.10
2017-12-31T04:07:42.394Z,11.20
2017-12-31T04:10:09.828Z,11.10
2017-12-31T04:12:46.184Z,11.10
2017-12-31T04:15:12.860Z,11.10
2017-12-31T04:17:40.679Z,11.10
2017-12-31T04:20:07.331Z,11.10
2017-12-31T04:22:34.641Z,11.10
2017-12-31T04:27:40.656Z,11.10
2017-12-31T04:30:07.308Z,11.10
2017-12-31T04:32:33.968Z,11.10
2017-12-31T04:35:04.629Z,11.10
2017-12-31T04:37:31.333Z,11.10
2017-12-31T04:39:58.754Z,11.10
2017-12-31T04:42:25.459Z,11.10
2017-12-31T04:44:52.186Z,11.10
2017-12-31T04:47:22.617Z,11.10
2017-12-31T04:49:49.286Z,11.10
2017-12-31T04:52:15.937Z,11.10
2017-12-31T04:54:42.659Z,11.20
2017-12-31T04:57:09.690Z,11.20
2017-12-31T04:59:36.375Z,11.10
2017-12-31T05:02:03.425Z,11.20
2017-12-31T05:04:30.093Z,11.20
2017-12-31T05:06:56.775Z,11.20
2017-12-31T05:09:23.435Z,11.20
2017-12-31T05:11:50.115Z,11.10
2017-12-31T05:14:17.182Z,11.20
2017-12-31T05:16:43.876Z,11.10
2017-12-31T05:19:10.905Z,11.20
2017-12-31T05:21:37.960Z,11.20
2017-12-31T05:24:05.026Z,11.20
2017-12-31T05:26:31.694Z,11.20
2017-12-31T05:28:59.128Z,11.10
2017-12-31T05:31:25.796Z,11.20
2017-12-31T05:33:52.441Z,11.20
2017-12-31T05:36:19.519Z,11.20
2017-12-31T05:38:46.564Z,11.20
2017-12-31T05:41:13.246Z,11.20
2017-12-31T05:43:39.884Z,11.20
2017-12-31T05:46:06.526Z,11.20
2017-12-31T05:48:33.588Z,11.20
2017-12-31T05:51:00.251Z,11.20
2017-12-31T05:53:26.952Z,11.20
2017-12-31T05:55:53.621Z,11.20
2017-12-31T05:58:20.669Z,11.20
2017-12-31T06:00:47.424Z,11.20
2017-12-31T06:03:14.489Z,11.20
2017-12-31T06:05:41.540Z,11.20
2017-12-31T06:08:08.244Z,11.20
2017-12-31T06:10:35.683Z,11.20
2017-12-31T06:13:02.770Z,11.20
2017-12-31T06:15:29.428Z,11.20
2017-12-31T06:17:56.857Z,11.20
2017-12-31T06:20:23.948Z,11.20
2017-12-31T06:22:50.620Z,11.20
2017-12-31T06:25:17.288Z,11.20
2017-12-31T06:27:46.862Z,11.20
2017-12-31T06:32:52.282Z,11.20
2017-12-31T06:35:18.969Z,11.20
2017-12-31T06:37:45.653Z,11.20
2017-12-31T06:40:12.331Z,11.20
2017-12-31T06:42:40.149Z,11.20
2017-12-31T06:45:06.830Z,11.20
2017-12-31T06:47:33.923Z,11.20
2017-12-31T06:50:01.337Z,11.20
2017-12-31T06:52:28.427Z,11.20
2017-12-31T06:54:55.074Z,11.20
2017-12-31T06:57:21.740Z,11.20
2017-12-31T06:59:52.196Z,11.20
2017-12-31T07:02:18.872Z,11.20
2017-12-31T07:04:45.522Z,11.20
2017-12-31T07:07:13.004Z,11.20
2017-12-31T07:09:39.649Z,11.20
2017-12-31T07:12:06.330Z,11.20
2017-12-31T07:14:32.994Z,11.20
2017-12-31T07:17:00.044Z,11.20
2017-12-31T07:19:26.742Z,11.20
2017-12-31T07:21:53.849Z,11.20
2017-12-31T07:24:20.543Z,11.20
2017-12-31T07:26:47.987Z,11.20
2017-12-31T07:29:15.086Z,11.20
2017-12-31T07:31:41.720Z,11.20
2017-12-31T07:34:08.390Z,11.20
2017-12-31T07:36:35.030Z,11.20
2017-12-31T07:39:01.711Z,11.20
2017-12-31T07:41:28.750Z,11.20
2017-12-31T07:43:55.426Z,11.20
2017-12-31T07:46:22.457Z,11.20
2017-12-31T07:48:49.175Z,11.20
2017-12-31T07:51:15.896Z,11.20
2017-12-31T07:53:42.597Z,11.20
2017-12-31T07:56:09.656Z,11.20
2017-12-31T07:58:37.463Z,11.20
2017-12-31T08:01:04.512Z,11.20
2017-12-31T08:03:31.224Z,11.20
2017-12-31T08:05:58.292Z,11.20
2017-12-31T08:08:24.953Z,11.20
2017-12-31T08:10:52.000Z,11.20
2017-12-31T08:13:18.679Z,11.20
2017-12-31T08:15:45.333Z,11.20
2017-12-31T08:18:12.004Z,11.20
2017-12-31T08:20:38.655Z,11.20
2017-12-31T08:23:06.101Z,11.20
2017-12-31T08:25:32.748Z,11.20
2017-12-31T08:27:59.456Z,11.20
2017-12-31T08:30:26.114Z,11.20
2017-12-31T08:32:52.817Z,11.20
2017-12-31T08:35:19.874Z,11.20
2017-12-31T08:37:46.939Z,11.20
2017-12-31T08:40:13.992Z,11.20
2017-12-31T08:42:40.671Z,11.20
2017-12-31T08:45:08.132Z,11.20
2017-12-31T08:47:35.967Z,11.20
2017-12-31T08:50:02.623Z,11.20
2017-12-31T08:52:29.287Z,11.20
2017-12-31T08:54:56.002Z,11.20
2017-12-31T08:57:22.677Z,11.20
2017-12-31T08:59:50.830Z,11.20
2017-12-31T09:02:17.899Z,11.20
2017-12-31T09:04:44.560Z,11.20
2017-12-31T09:07:11.655Z,11.20
2017-12-31T09:09:38.330Z,11.20
2017-12-31T09:12:05.004Z,11.20
2017-12-31T09:14:31.681Z,11.20
2017-12-31T09:16:58.743Z,11.20
2017-12-31T09:19:25.815Z,11.20
2017-12-31T09:21:58.815Z,11.20
2017-12-31T09:24:25.473Z,11.20
2017-12-31T09:26:52.136Z,11.20
2017-12-31T09:29:18.875Z,11.20
2017-12-31T09:31:45.902Z,11.20
2017-12-31T09:34:12.540Z,11.20
2017-12-31T09:36:39.968Z,11.20
2017-12-31T09:39:07.051Z,11.20
2017-12-31T09:41:34.138Z,11.20
2017-12-31T09:44:01.570Z,11.20
2017-12-31T09:49:07.787Z,11.20
2017-12-31T09:51:34.461Z,11.20
2017-12-31T09:54:01.105Z,11.20
2017-12-31T09:56:28.164Z,11.30
2017-12-31T09:58:54.829Z,11.20
2017-12-31T10:01:21.475Z,11.20
2017-12-31T10:03:48.584Z,11.20
2017-12-31T10:06:15.668Z,11.20
2017-12-31T10:08:43.088Z,11.20
2017-12-31T10:11:10.502Z,11.20
2017-12-31T10:13:37.943Z,11.20
2017-12-31T10:16:05.731Z,11.20
2017-12-31T10:18:32.788Z,11.20
2017-12-31T10:20:59.441Z,11.20
2017-12-31T10:23:26.079Z,11.30
2017-12-31T10:25:53.535Z,11.30
2017-12-31T10:28:20.185Z,11.20
2017-12-31T10:30:52.967Z,11.20
2017-12-31T10:33:20.004Z,11.20
2017-12-31T10:35:46.664Z,11.20
2017-12-31T10:38:13.313Z,11.20
2017-12-31T10:40:39.980Z,11.20
2017-12-31T10:43:06.668Z,11.20
2017-12-31T10:45:33.375Z,11.20
2017-12-31T10:48:00.034Z,11.30
2017-12-31T10:50:27.083Z,11.30
2017-12-31T10:52:53.744Z,11.30
2017-12-31T10:55:20.418Z,11.20
2017-12-31T10:57:47.127Z,11.20
2017-12-31T11:00:14.169Z,11.20
2017-12-31T11:02:40.868Z,11.20
2017-12-31T11:05:08.293Z,11.20
2017-12-31T11:07:35.374Z,11.20
2017-12-31T11:10:02.796Z,11.20
2017-12-31T11:12:29.446Z,11.20
2017-12-31T11:17:35.388Z,11.30
2017-12-31T11:20:02.234Z,11.30
2017-12-31T11:22:28.877Z,11.30
2017-12-31T11:24:55.990Z,11.20
2017-12-31T11:27:23.030Z,11.20
2017-12-31T11:29:52.883Z,11.20
2017-12-31T11:32:19.941Z,11.30
2017-12-31T11:34:46.606Z,11.20
2017-12-31T11:37:13.275Z,11.20
2017-12-31T11:39:40.334Z,11.20
2017-12-31T11:42:06.974Z,11.30
2017-12-31T11:44:33.680Z,11.20
2017-12-31T11:47:01.106Z,11.30
2017-12-31T11:49:28.199Z,11.30
2017-12-31T11:51:55.266Z,11.40
2017-12-31T11:54:22.310Z,11.50
2017-12-31T11:56:49.363Z,11.60
2017-12-31T11:59:16.451Z,11.70
2017-12-31T12:01:43.112Z,11.70
2017-12-31T12:04:09.767Z,11.80
2017-12-31T12:06:36.424Z,11.90
2017-12-31T12:09:03.061Z,12.00
2017-12-31T12:11:30.126Z,12.10
2017-12-31T12:13:56.819Z,12.10
2017-12-31T12:16:23.516Z,12.10
2017-12-31T12:18:50.160Z,12.20
2017-12-31T12:21:16.821Z,12.30
2017-12-31T12:23:46.842Z,12.30
2017-12-31T12:26:13.533Z,12.30
2017-12-31T12:28:40.247Z,12.30
2017-12-31T12:31:07.297Z,12.40
2017-12-31T12:33:34.885Z,12.30
2017-12-31T12:36:01.556Z,12.40
2017-12-31T12:38:28.246Z,12.40
2017-12-31T12:40:55.292Z,12.40
2017-12-31T12:43:21.993Z,12.50
2017-12-31T12:45:48.655Z,12.50
2017-12-31T12:48:15.717Z,12.60
2017-12-31T12:50:42.772Z,12.70
2017-12-31T12:53:10.929Z,12.70
2017-12-31T12:55:37.596Z,12.70
2017-12-31T12:58:04.671Z,12.70
2017-12-31T13:00:31.352Z,12.80
2017-12-31T13:02:58.043Z,12.80
2017-12-31T13:05:28.869Z,12.80
2017-12-31T13:07:55.540Z,12.80
2017-12-31T13:10:22.175Z,12.80
2017-12-31T13:12:49.250Z,12.90
2017-12-31T13:15:15.950Z,13.00
2017-12-31T13:17:42.616Z,13.00
2017-12-31T13:20:09.261Z,13.00
2017-12-31T13:22:35.966Z,13.00
2017-12-31T13:25:03.055Z,13.00
2017-12-31T13:27:29.748Z,13.00
2017-12-31T13:29:56.839Z,13.00
2017-12-31T13:32:23.934Z,13.10
2017-12-31T13:34:50.630Z,13.10
2017-12-31T13:37:17.316Z,13.00
2017-12-31T13:39:43.965Z,13.10
2017-12-31T13:42:10.653Z,13.20
2017-12-31T13:44:37.742Z,13.30
2017-12-31T13:47:04.453Z,13.20
2017-12-31T13:49:31.515Z,13.20
2017-12-31T13:51:58.977Z,13.30
2017-12-31T13:54:26.102Z,13.30
2017-12-31T13:56:53.205Z,13.30
2017-12-31T13:59:19.921Z,13.40
2017-12-31T14:01:46.590Z,13.40
2017-12-31T14:04:13.649Z,13.50
2017-12-31T14:06:40.717Z,13.40
2017-12-31T14:09:08.186Z,13.40
2017-12-31T14:11:34.858Z,13.50
2017-12-31T14:14:01.508Z,13.50
2017-12-31T14:16:28.216Z,13.50
2017-12-31T14:18:56.024Z,13.50
2017-12-31T14:21:22.723Z,13.50
2017-12-31T14:23:49.414Z,13.60
2017-12-31T14:26:16.478Z,13.50
2017-12-31T14:28:43.586Z,13.60
2017-12-31T14:31:10.778Z,13.60
2017-12-31T14:33:41.050Z,13.60
2017-12-31T14:36:07.749Z,13.60
2017-12-31T14:38:34.887Z,13.70
2017-12-31T14:41:01.526Z,13.80
2017-12-31T14:43:28.987Z,13.70
2017-12-31T14:46:04.647Z,13.70
2017-12-31T14:48:31.364Z,13.70
2017-12-31T14:50:58.150Z,13.80
2017-12-31T14:53:25.365Z,13.70
2017-12-31T14:55:52.526Z,13.80
2017-12-31T14:58:19.613Z,13.80
2017-12-31T15:00:46.356Z,13.90
2017-12-31T15:03:13.121Z,13.90
2017-12-31T15:05:39.813Z,13.90
2017-12-31T15:08:06.490Z,14.00
2017-12-31T15:10:33.608Z,14.00
2017-12-31T15:13:00.258Z,13.90
2017-12-31T15:15:26.954Z,13.90
2017-12-31T15:17:53.585Z,13.90
2017-12-31T15:20:20.243Z,14.00
2017-12-31T15:22:47.042Z,14.00
2017-12-31T15:25:13.726Z,13.90
2017-12-31T15:27:40.397Z,14.00
2017-12-31T15:30:07.506Z,14.00
2017-12-31T15:32:34.235Z,14.00
2017-12-31T15:35:01.315Z,14.00
2017-12-31T15:37:28.422Z,14.10
2017-12-31T15:39:55.069Z,14.10
2017-12-31T15:42:21.767Z,14.10
2017-12-31T15:44:48.408Z,14.10
2017-12-31T15:47:15.141Z,14.20
2017-12-31T15:49:42.205Z,14.20
2017-12-31T15:52:09.292Z,14.20
2017-12-31T15:54:36.079Z,14.10
2017-12-31T15:57:05.063Z,14.20
2017-12-31T15:59:31.766Z,14.10
2017-12-31T16:01:58.468Z,14.10
2017-12-31T16:04:25.143Z,14.20
2017-12-31T16:06:51.888Z,14.20
2017-12-31T16:11:57.788Z,14.20
2017-12-31T16:14:24.450Z,14.20
2017-12-31T16:16:51.107Z,14.20
2017-12-31T16:19:17.841Z,14.30
2017-12-31T16:21:44.485Z,14.30
2017-12-31T16:24:11.129Z,14.30
2017-12-31T16:26:37.859Z,14.20
2017-12-31T16:29:04.661Z,14.20
2017-12-31T16:31:31.727Z,14.20
2017-12-31T16:33:58.410Z,14.30
2017-12-31T16:36:25.158Z,14.40
2017-12-31T16:38:51.887Z,14.30
2017-12-31T16:41:18.563Z,14.20
2017-12-31T16:43:45.611Z,14.20
2017-12-31T16:46:12.665Z,14.30
2017-12-31T16:48:39.301Z,14.30
2017-12-31T16:51:16.752Z,14.30
2017-12-31T16:53:43.415Z,14.40
2017-12-31T16:56:10.155Z,14.40
2017-12-31T16:58:36.906Z,14.40
2017-12-31T17:01:04.066Z,14.40
2017-12-31T17:03:30.786Z,14.40
2017-12-31T17:05:57.574Z,14.50
2017-12-31T17:08:24.409Z,14.50
2017-12-31T17:10:51.169Z,14.50
2017-12-31T17:13:18.349Z,14.50
2017-12-31T17:15:45.181Z,14.60
2017-12-31T17:18:11.996Z,14.60
2017-12-31T17:20:38.693Z,14.50
2017-12-31T17:23:05.465Z,14.60
2017-12-31T17:25:32.149Z,14.60
2017-12-31T17:27:58.930Z,14.60
2017-12-31T17:30:25.629Z,14.60
2017-12-31T17:32:52.380Z,14.50
2017-12-31T17:35:23.225Z,14.60
2017-12-31T17:37:49.965Z,14.60
2017-12-31T17:40:16.749Z,14.60
2017-12-31T17:42:47.189Z,14.70
2017-12-31T17:45:13.859Z,14.80
2017-12-31T17:47:40.600Z,14.90
2017-12-31T17:50:07.762Z,14.80
2017-12-31T17:52:34.497Z,14.80
2017-12-31T17:55:05.107Z,14.80
2017-12-31T17:57:31.975Z,14.90
2017-12-31T17:59:58.755Z,15.00
2017-12-31T18:02:29.168Z,15.00
2017-12-31T18:04:55.904Z,15.00
2017-12-31T18:07:23.175Z,15.00
2017-12-31T18:09:49.883Z,15.00
2017-12-31T18:12:16.662Z,15.00
2017-12-31T18:14:43.369Z,15.00
2017-12-31T18:17:10.166Z,15.20
2017-12-31T18:19:36.940Z,15.20
2017-12-31T18:22:03.631Z,15.10
2017-12-31T18:24:30.473Z,15.00
2017-12-31T18:26:57.277Z,15.20
2017-12-31T18:29:23.943Z,15.20
2017-12-31T18:31:50.713Z,15.20
2017-12-31T18:34:23.192Z,15.00
2017-12-31T18:36:50.363Z,15.00
2017-12-31T18:39:17.084Z,14.90
2017-12-31T18:41:43.842Z,14.90
2017-12-31T18:44:11.106Z,14.90
2017-12-31T18:46:37.764Z,14.80
2017-12-31T18:49:04.414Z,14.70
2017-12-31T18:51:31.092Z,14.60
2017-12-31T18:53:58.220Z,14.50
2017-12-31T18:56:29.301Z,14.40
2017-12-31T18:58:55.994Z,14.40
2017-12-31T19:01:22.655Z,14.40
2017-12-31T19:03:49.303Z,14.30
2017-12-31T19:06:15.994Z,14.20
2017-12-31T19:08:42.755Z,14.20
2017-12-31T19:11:09.506Z,14.20
2017-12-31T19:13:36.194Z,14.10
2017-12-31T19:16:03.282Z,14.10
2017-12-31T19:18:29.950Z,14.10
2017-12-31T19:20:56.702Z,14.10
2017-12-31T19:23:23.369Z,14.00
2017-12-31T19:25:50.058Z,13.90
2017-12-31T19:28:16.758Z,13.90
2017-12-31T19:30:43.394Z,13.90
2017-12-31T19:33:10.087Z,13.90
2017-12-31T19:35:36.780Z,13.90
2017-12-31T19:38:03.473Z,13.90
2017-12-31T19:40:30.136Z,13.90
2017-12-31T19:42:56.797Z,13.80
2017-12-31T19:45:23.468Z,13.80
2017-12-31T19:47:53.042Z,13.80
2017-12-31T19:50:19.705Z,13.70
2017-12-31T19:52:46.468Z,13.70
2017-12-31T19:55:13.592Z,13.60
2017-12-31T19:57:46.677Z,13.60
2017-12-31T20:00:13.384Z,13.60
2017-12-31T20:02:40.037Z,13.60
2017-12-31T20:05:06.669Z,13.50
2017-12-31T20:07:33.400Z,13.50
2017-12-31T20:10:00.078Z,13.50
2017-12-31T20:12:27.206Z,13.50
2017-12-31T20:14:53.899Z,13.50
2017-12-31T20:17:20.557Z,13.40
2017-12-31T20:19:47.261Z,13.40
2017-12-31T20:22:13.924Z,13.50
2017-12-31T20:24:40.568Z,13.40
2017-12-31T20:27:07.271Z,13.40
2017-12-31T20:29:33.964Z,13.40
2017-12-31T20:32:00.701Z,13.40
2017-12-31T20:34:27.413Z,13.30
2017-12-31T20:36:54.115Z,13.30
2017-12-31T20:39:23.182Z,13.30
2017-12-31T20:41:49.837Z,13.30
2017-12-31T20:44:16.559Z,13.30
2017-12-31T20:46:43.262Z,13.30
2017-12-31T20:49:09.969Z,13.20
2017-12-31T20:51:36.670Z,13.20
2017-12-31T20:54:03.360Z,13.20
2017-12-31T20:56:30.112Z,13.10
2017-12-31T20:58:56.847Z,13.10
2017-12-31T21:01:24.376Z,13.20
2017-12-31T21:03:51.018Z,13.20
2017-12-31T21:06:17.721Z,13.10
2017-12-31T21:08:44.442Z,13.10
2017-12-31T21:11:11.129Z,13.10
2017-12-31T21:13:37.875Z,13.10
2017-12-31T21:16:04.611Z,13.10
2017-12-31T21:18:31.302Z,13.10
2017-12-31T21:20:58.401Z,13.10
2017-12-31T21:23:25.164Z,13.10
2017-12-31T21:25:51.870Z,13.10
2017-12-31T21:28:18.546Z,13.10
2017-12-31T21:30:45.290Z,13.00
2017-12-31T21:33:11.965Z,13.00
2017-12-31T21:35:39.063Z,12.90
2017-12-31T21:38:05.764Z,13.00
2017-12-31T21:40:32.414Z,13.00
2017-12-31T21:42:59.279Z,12.90
2017-12-31T21:45:26.432Z,12.90
2017-12-31T21:48:00.282Z,12.90
2017-12-31T21:50:27.050Z,12.90
2017-12-31T21:52:53.766Z,12.90
2017-12-31T21:55:20.414Z,12.90
2017-12-31T21:57:47.592Z,12.90
2017-12-31T22:00:14.281Z,12.90
2017-12-31T22:02:40.979Z,12.80
2017-12-31T22:05:07.646Z,12.80
2017-12-31T22:07:34.347Z,12.80
2017-12-31T22:10:05.311Z,12.80
2017-12-31T22:12:31.966Z,12.80
2017-12-31T22:14:59.188Z,12.80
2017-12-31T22:17:25.832Z,12.80
2017-12-31T22:19:52.603Z,12.70
2017-12-31T22:22:19.302Z,12.70
2017-12-31T22:24:46.007Z,12.70
2017-12-31T22:27:12.717Z,12.70
2017-12-31T22:29:39.452Z,12.70
2017-12-31T22:32:06.157Z,12.70
2017-12-31T22:34:35.360Z,12.70
2017-12-31T22:37:02.091Z,12.70
2017-12-31T22:39:35.222Z,12.60
2017-12-31T22:42:01.937Z,12.60
2017-12-31T22:44:29.256Z,12.60
2017-12-31T22:46:56.024Z,12.60
2017-12-31T22:49:22.730Z,12.60
2017-12-31T22:51:49.496Z,12.60
2017-12-31T22:54:16.231Z,12.60
2017-12-31T22:56:42.861Z,12.60
2017-12-31T22:59:09.562Z,12.60
2017-12-31T23:01:36.198Z,12.60
2017-12-31T23:04:02.911Z,12.50
2017-12-31T23:06:29.608Z,12.50
2017-12-31T23:08:56.749Z,12.40
2017-12-31T23:11:23.874Z,12.50
2017-12-31T23:13:50.516Z,12.50
2017-12-31T23:16:17.213Z,12.50
2017-12-31T23:18:43.956Z,12.50
2017-12-31T23:23:50.348Z,12.40
2017-12-31T23:26:17.038Z,12.40
2017-12-31T23:28:43.702Z,12.40
2017-12-31T23:31:10.420Z,12.40
2017-12-31T23:33:37.108Z,12.40
2017-12-31T23:36:03.860Z,12.40
2017-12-31T23:38:30.553Z,12.40
2017-12-31T23:40:57.245Z,12.30
2017-12-31T23:43:23.928Z,12.30
2017-12-31T23:45:50.589Z,12.30
2017-12-31T23:48:17.317Z,12.30
2017-12-31T23:50:44.072Z,12.30
2017-12-31T23:53:10.828Z,12.30
2017-12-31T23:55:37.576Z,12.30
2017-12-31T23:58:04.238Z,12.30
